createdAt,value
2023-03-28T00:01:33.170Z,57.76
2023-03-28T00:06:30.965Z,58.16
2023-03-28T00:11:29.107Z,58.48
2023-03-28T00:16:27.212Z,58.50
2023-03-28T00:21:26.777Z,58.68
2023-03-28T00:26:26.220Z,57.94
2023-03-28T00:31:25.317Z,57.72
2023-03-28T00:36:25.868Z,57.30
2023-03-28T00:41:24.677Z,56.63
2023-03-28T00:46:26.353Z,56.64
2023-03-28T00:51:27.256Z,56.48
2023-03-28T00:56:29.126Z,56.10
2023-03-28T01:01:27.268Z,55.92
2023-03-28T01:06:25.746Z,55.10
2023-03-28T01:11:24.432Z,54.76
2023-03-28T01:16:22.563Z,54.40
2023-03-28T01:22:00.466Z,53.50
2023-03-28T01:27:06.465Z,54.18
2023-03-28T01:32:33.458Z,54.16
2023-03-28T01:37:44.001Z,53.93
2023-03-28T01:42:52.529Z,54.38
2023-03-28T01:47:56.317Z,54.79
2023-03-28T01:53:02.708Z,54.34
2023-03-28T01:58:06.083Z,54.52
2023-03-28T02:03:18.545Z,54.39
2023-03-28T02:13:11.503Z,53.80
2023-03-28T02:18:20.272Z,53.55
2023-03-28T02:23:30.066Z,53.24
2023-03-28T02:28:44.069Z,53.04
2023-03-28T02:33:47.678Z,52.81
2023-03-28T02:38:52.950Z,53.36
2023-03-28T02:44:04.865Z,53.00
2023-03-28T02:49:23.546Z,52.93
2023-03-28T02:54:30.434Z,52.70
2023-03-28T03:00:01.574Z,53.16
2023-03-28T03:05:01.129Z,52.74
2023-03-28T03:09:58.110Z,52.90
2023-03-28T03:14:54.976Z,53.57
2023-03-28T03:20:32.795Z,53.90
2023-03-28T03:25:30.668Z,53.20
2023-03-28T03:30:37.025Z,53.77
2023-03-28T03:35:57.607Z,53.77
2023-03-28T03:40:54.644Z,53.80
2023-03-28T03:45:53.436Z,53.02
2023-03-28T03:50:50.684Z,53.30
2023-03-28T03:55:48.591Z,53.15
2023-03-28T04:00:48.271Z,52.66
2023-03-28T04:06:05.441Z,52.96
2023-03-28T04:11:03.798Z,53.10
2023-03-28T04:16:08.857Z,52.62
2023-03-28T04:21:12.094Z,52.72
2023-03-28T04:26:20.986Z,52.52
2023-03-28T04:31:28.685Z,52.24
2023-03-28T04:36:44.405Z,52.43
2023-03-28T04:41:45.533Z,52.30
2023-03-28T04:47:11.053Z,52.22
2023-03-28T04:52:10.418Z,51.69
2023-03-28T04:57:08.561Z,50.90
2023-03-28T05:02:11.391Z,50.94
2023-03-28T05:07:21.395Z,50.64
2023-03-28T05:12:19.971Z,50.84
2023-03-28T05:17:28.211Z,50.56
2023-03-28T05:22:37.594Z,50.62
2023-03-28T05:27:37.622Z,50.13
2023-03-28T05:32:34.929Z,49.80
2023-03-28T05:37:32.626Z,49.66
2023-03-28T05:42:30.632Z,49.26
2023-03-28T05:47:28.750Z,49.32
2023-03-28T05:52:27.445Z,49.27
2023-03-28T05:57:24.985Z,48.68
2023-03-28T06:02:24.667Z,49.11
2023-03-28T06:07:39.412Z,49.14
2023-03-28T06:12:40.862Z,48.06
2023-03-28T06:17:38.391Z,47.91
2023-03-28T06:22:38.350Z,47.82
2023-03-28T06:27:38.284Z,47.89
2023-03-28T06:32:35.468Z,47.55
2023-03-28T06:37:33.094Z,47.74
2023-03-28T06:42:37.256Z,47.59
2023-03-28T06:47:48.664Z,47.03
2023-03-28T06:52:46.862Z,47.19
2023-03-28T06:57:47.440Z,46.57
2023-03-28T07:02:51.754Z,46.87
2023-03-28T07:07:49.692Z,46.49
2023-03-28T07:12:49.796Z,45.98
2023-03-28T07:17:47.683Z,45.26
2023-03-28T07:22:44.677Z,45.63
2023-03-28T07:27:44.662Z,45.84
2023-03-28T07:32:53.757Z,45.23
2023-03-28T07:37:59.043Z,44.69
2023-03-28T07:43:05.676Z,45.13
2023-03-28T07:48:05.269Z,44.76
2023-03-28T07:53:02.384Z,42.06
2023-03-28T07:58:07.357Z,39.98
2023-03-28T08:03:09.342Z,37.70
2023-03-28T08:08:07.548Z,37.00
2023-03-28T08:13:04.506Z,34.57
2023-03-28T08:18:01.649Z,33.45
2023-03-28T08:23:07.276Z,32.76
2023-03-28T08:28:15.647Z,31.53
2023-03-28T08:33:12.671Z,30.52
2023-03-28T08:38:11.343Z,31.15
2023-03-28T08:43:28.023Z,29.46
2023-03-28T08:48:28.964Z,31.16
2023-03-28T08:53:33.776Z,30.60
2023-03-28T08:58:38.429Z,30.82
2023-03-28T09:03:36.602Z,31.48
2023-03-28T09:09:14.351Z,32.63
2023-03-28T09:14:22.624Z,32.83
2023-03-28T09:19:40.510Z,33.22
2023-03-28T09:25:32.086Z,33.10
2023-03-28T09:30:37.149Z,33.63
2023-03-28T09:35:34.599Z,34.72
2023-03-28T09:40:33.895Z,35.13
2023-03-28T09:45:57.990Z,34.99
2023-03-28T09:50:57.107Z,36.05
2023-03-28T09:56:04.272Z,35.95
2023-03-28T10:01:25.452Z,36.19
2023-03-28T10:06:41.688Z,36.85
2023-03-28T10:11:54.040Z,36.97
2023-03-28T10:16:53.489Z,36.67
2023-03-28T10:22:02.565Z,37.67
2023-03-28T10:27:16.021Z,37.51
2023-03-28T10:32:24.314Z,38.28
2023-03-28T10:37:50.647Z,37.39
2023-03-28T10:42:58.174Z,38.14
2023-03-28T10:48:17.210Z,37.42
2023-03-28T10:53:45.533Z,37.00
2023-03-28T10:58:53.723Z,36.93
2023-03-28T11:04:07.346Z,36.39
2023-03-28T11:09:13.711Z,38.08
2023-03-28T11:14:48.139Z,37.30
2023-03-28T11:20:21.940Z,37.28
2023-03-28T11:25:35.662Z,37.55
2023-03-28T11:30:42.187Z,36.76
2023-03-28T11:35:59.182Z,36.82
2023-03-28T11:41:01.522Z,36.86
2023-03-28T11:46:24.465Z,36.62
2023-03-28T11:51:28.907Z,36.75
2023-03-28T11:56:43.301Z,36.78
2023-03-28T12:02:12.506Z,36.87
2023-03-28T12:07:18.235Z,36.74
2023-03-28T12:12:22.378Z,36.73
2023-03-28T12:17:23.985Z,36.31
2023-03-28T12:22:26.062Z,36.29
2023-03-28T12:27:36.523Z,35.93
2023-03-28T12:32:47.722Z,35.33
2023-03-28T12:38:14.091Z,35.68
2023-03-28T12:43:14.201Z,34.91
2023-03-28T12:48:16.327Z,35.22
2023-03-28T12:53:15.055Z,34.69
2023-03-28T12:58:21.604Z,34.98
2023-03-28T13:03:33.933Z,33.96
2023-03-28T13:08:48.784Z,34.50
2023-03-28T13:13:52.933Z,34.16
2023-03-28T13:19:05.083Z,33.24
2023-03-28T13:24:02.661Z,33.71
2023-03-28T13:29:00.096Z,34.08
2023-03-28T13:34:00.384Z,33.65
2023-03-28T13:39:23.528Z,33.75
2023-03-28T13:44:22.574Z,34.11
2023-03-28T13:49:22.643Z,34.03
2023-03-28T13:54:20.170Z,33.59
2023-03-28T13:59:21.598Z,33.96
2023-03-28T14:04:20.681Z,34.37
2023-03-28T14:09:20.788Z,34.65
2023-03-28T14:14:30.252Z,34.32
2023-03-28T14:19:34.134Z,33.87
2023-03-28T14:24:31.048Z,34.15
2023-03-28T14:29:28.578Z,33.54
2023-03-28T14:34:29.760Z,33.00
2023-03-28T14:39:35.372Z,34.26
2023-03-28T14:44:37.064Z,35.60
2023-03-28T14:49:34.514Z,36.79
2023-03-28T14:54:34.275Z,38.26
2023-03-28T14:59:36.485Z,39.39
2023-03-28T15:04:39.352Z,40.25
2023-03-28T15:09:36.347Z,40.67
2023-03-28T15:14:39.166Z,41.50
2023-03-28T15:19:39.717Z,42.08
2023-03-28T15:24:38.209Z,43.02
2023-03-28T15:29:38.503Z,43.77
2023-03-28T15:34:44.723Z,44.50
2023-03-28T15:39:41.908Z,45.23
2023-03-28T15:44:43.526Z,46.16
2023-03-28T15:49:40.446Z,47.55
2023-03-28T15:54:48.352Z,48.28
2023-03-28T15:59:49.635Z,49.63
2023-03-28T16:04:57.773Z,48.25
2023-03-28T16:09:54.644Z,47.19
2023-03-28T16:14:59.938Z,47.66
2023-03-28T16:19:57.502Z,47.99
2023-03-28T16:25:02.104Z,47.86
2023-03-28T16:30:01.007Z,47.55
2023-03-28T16:34:58.038Z,47.93
2023-03-28T16:39:58.038Z,48.62
2023-03-28T16:44:55.018Z,49.93
2023-03-28T16:49:53.744Z,51.27
2023-03-28T16:54:52.817Z,51.74
2023-03-28T16:59:52.191Z,53.43
2023-03-28T17:04:50.493Z,55.42
2023-03-28T17:09:51.248Z,55.93
2023-03-28T17:14:48.237Z,58.13
2023-03-28T17:19:45.241Z,59.17
2023-03-28T17:24:46.297Z,60.06
2023-03-28T17:29:43.887Z,61.25
2023-03-28T17:34:43.824Z,61.52
2023-03-28T17:39:40.890Z,61.63
2023-03-28T17:44:40.294Z,61.76
2023-03-28T17:49:37.998Z,63.07
2023-03-28T17:54:36.901Z,63.07
2023-03-28T17:59:46.484Z,63.60
2023-03-28T18:04:44.119Z,63.13
2023-03-28T18:09:47.582Z,62.54
2023-03-28T18:14:44.798Z,61.70
2023-03-28T18:19:41.710Z,60.75
2023-03-28T18:24:39.623Z,59.83
2023-03-28T18:29:38.529Z,59.33
2023-03-28T18:34:38.707Z,58.78
2023-03-28T18:39:41.062Z,58.21
2023-03-28T18:44:40.237Z,57.57
2023-03-28T18:49:43.774Z,57.34
2023-03-28T18:54:46.262Z,56.93
2023-03-28T18:59:46.436Z,57.05
2023-03-28T19:04:47.600Z,56.28
2023-03-28T19:09:45.489Z,56.35
2023-03-28T19:14:45.999Z,56.15
2023-03-28T19:19:45.127Z,55.90
2023-03-28T19:24:42.071Z,55.73
2023-03-28T19:29:39.795Z,55.64
2023-03-28T19:34:41.876Z,55.41
2023-03-28T19:39:38.671Z,55.40
2023-03-28T19:44:36.489Z,55.07
2023-03-28T19:49:34.131Z,54.73
2023-03-28T19:54:33.717Z,55.12
2023-03-28T19:59:30.508Z,54.77
2023-03-28T20:04:27.967Z,54.51
2023-03-28T20:09:25.764Z,54.14
2023-03-28T20:14:22.831Z,54.33
2023-03-28T20:19:19.635Z,54.58
2023-03-28T20:24:17.522Z,54.52
2023-03-28T20:29:15.175Z,54.07
2023-03-28T20:34:11.982Z,53.77
2023-03-28T20:39:08.881Z,54.29
2023-03-28T20:44:06.071Z,53.68
2023-03-28T20:49:05.559Z,53.98
2023-03-28T20:54:03.080Z,54.41
2023-03-28T20:58:59.956Z,54.10
2023-03-28T21:04:00.459Z,54.07
2023-03-28T21:09:00.240Z,54.05
2023-03-28T21:13:59.218Z,54.19
2023-03-28T21:18:56.094Z,54.58
2023-03-28T21:23:54.094Z,54.20
2023-03-28T21:28:52.599Z,54.60
2023-03-28T21:33:50.058Z,54.55
2023-03-28T21:38:48.001Z,54.85
2023-03-28T21:43:44.938Z,54.82
2023-03-28T21:48:44.729Z,54.30
2023-03-28T21:53:42.127Z,53.28
2023-03-28T21:58:39.010Z,51.31
2023-03-28T22:03:37.065Z,51.05
2023-03-28T22:08:34.679Z,49.51
2023-03-28T22:13:31.549Z,49.39
2023-03-28T22:18:30.054Z,50.28
2023-03-28T22:23:26.991Z,49.66
2023-03-28T22:28:25.056Z,49.72
2023-03-28T22:33:22.814Z,49.70
2023-03-28T22:38:19.713Z,49.41
2023-03-28T22:43:16.885Z,49.67
2023-03-28T22:48:14.645Z,49.70
2023-03-28T22:53:12.032Z,50.00
2023-03-28T22:58:08.852Z,50.16
2023-03-28T23:03:07.247Z,50.62
2023-03-28T23:08:05.811Z,50.64
2023-03-28T23:13:03.389Z,51.05
2023-03-28T23:18:00.214Z,50.90
2023-03-28T23:22:57.156Z,51.41
2023-03-28T23:27:54.790Z,51.73
2023-03-28T23:32:51.544Z,51.89
2023-03-28T23:37:52.344Z,52.44
2023-03-28T23:42:49.097Z,52.46
2023-03-28T23:47:46.705Z,52.87
2023-03-28T23:52:43.453Z,53.07
2023-03-28T23:57:40.750Z,53.13
